Time;durP1;ratioP1;P1;durP2;ratioP2;P2;SDS_P1;SDS_P2;PMS_P1;PMS_P2;Temp;Humidity;BMP_temperature;BMP_pressure;BME280_temperature;BME280_humidity;BME280_pressure;Samples;Min_cycle;Max_cycle;Signal;HPM_P1;HPM_P2
2022/09/04 00:00:19;;;;;;;2.27;2.07;;;;;;;;;;5130521;27;20466;-72
2022/09/04 00:02:51;;;;;;;2.00;1.87;;;;;;;;;;5130191;27;20431;-65
2022/09/04 00:05:17;;;;;;;12.70;2.00;;;;;;;;;;5131040;27;20531;-67
2022/09/04 00:07:43;;;;;;;2.00;1.90;;;;;;;;;;5128504;27;20930;-62
2022/09/04 00:10:15;;;;;;;2.47;2.37;;;;;;;;;;5130521;27;20185;-70
2022/09/04 00:12:46;;;;;;;2.63;2.50;;;;;;;;;;5130072;27;20181;-68
2022/09/04 00:15:15;;;;;;;2.23;2.23;;;;;;;;;;5130696;27;20442;-63
2022/09/04 00:17:45;;;;;;;1.80;1.70;;;;;;;;;;5128816;27;20442;-66
2022/09/04 00:20:23;;;;;;;1.93;1.80;;;;;;;;;;5130086;27;20472;-69
2022/09/04 00:22:54;;;;;;;2.53;1.20;;;;;;;;;;5130398;27;20440;-66
2022/09/04 00:25:29;;;;;;;1.87;1.87;;;;;;;;;;5129668;27;20436;-71
2022/09/04 00:28:07;;;;;;;2.10;1.40;;;;;;;;;;5129266;27;20438;-62
2022/09/04 00:30:34;;;;;;;1.73;1.63;;;;;;;;;;5130622;27;20980;-63
2022/09/04 00:33:03;;;;;;;2.10;2.00;;;;;;;;;;5127585;27;20661;-69
2022/09/04 00:35:47;;;;;;;9.17;1.80;;;;;;;;;;5109624;28;20430;-67
2022/09/04 00:38:12;;;;;;;2.07;1.87;;;;;;;;;;5129367;28;20495;-69
2022/09/04 00:40:41;;;;;;;2.33;2.23;;;;;;;;;;5130480;27;20474;-64
2022/09/04 00:43:20;;;;;;;5.53;2.07;;;;;;;;;;5134325;27;20241;-70
2022/09/04 00:46:05;;;;;;;1.83;1.83;;;;;;;;;;5134181;27;20436;-63
2022/09/04 00:48:38;;;;;;;2.03;1.90;;;;;;;;;;5133137;27;20542;-63
2022/09/04 00:51:07;;;;;;;2.23;2.23;;;;;;;;;;5134321;27;20434;-70
2022/09/04 00:53:39;;;;;;;1.70;1.60;;;;;;;;;;5133918;27;20432;-63
2022/09/04 00:56:17;;;;;;;1.90;1.80;;;;;;;;;;5133791;27;20445;-64
2022/09/04 00:58:46;;;;;;;2.13;1.50;;;;;;;;;;5132768;27;21023;-65
2022/09/04 01:01:16;;;;;;;1.60;1.60;;;;;;;;;;5133708;27;20624;-69
2022/09/04 01:03:45;;;;;;;3.00;1.93;;;;;;;;;;5132755;27;20483;-66
2022/09/04 01:06:23;;;;;;;1.70;1.70;;;;;;;;;;5132571;27;20442;-63
2022/09/04 01:09:09;;;;;;;2.20;1.90;;;;;;;;;;5133272;27;20433;-65
2022/09/04 01:11:47;;;;;;;2.00;1.90;;;;;;;;;;5134378;27;20807;-71
2022/09/04 01:14:33;;;;;;;5.70;2.03;;;;;;;;;;5132363;27;20427;-63
2022/09/04 01:17:08;;;;;;;1.40;1.40;;;;;;;;;;5133116;27;20479;-68
2022/09/04 01:19:44;;;;;;;1.90;1.80;;;;;;;;;;5133800;27;20434;-65
2022/09/04 01:22:29;;;;;;;1.20;1.20;;;;;;;;;;5133696;27;20605;-63
2022/09/04 01:25:08;;;;;;;3.27;1.97;;;;;;;;;;5130026;27;20422;-64
2022/09/04 01:27:36;;;;;;;2.00;2.00;;;;;;;;;;5132886;27;21034;-69
2022/09/04 01:30:06;;;;;;;2.00;1.90;;;;;;;;;;5133517;27;20430;-64
2022/09/04 01:32:43;;;;;;;5.30;1.70;;;;;;;;;;5132775;27;20521;-67
2022/09/04 01:35:18;;;;;;;2.00;1.90;;;;;;;;;;5132561;27;20430;-63
2022/09/04 01:37:46;;;;;;;3.60;1.77;;;;;;;;;;5132713;27;20438;-72
2022/09/04 01:40:26;;;;;;;1.63;1.63;;;;;;;;;;5132139;27;20991;-64
2022/09/04 01:43:20;;;;;;;2.70;1.83;;;;;;;;;;5133003;27;20450;-63
2022/09/04 01:45:58;;;;;;;2.83;2.00;;;;;;;;;;5122881;27;20502;-67
2022/09/04 01:48:31;;;;;;;1.80;1.50;;;;;;;;;;5133669;27;20420;-64
2022/09/04 01:51:01;;;;;;;3.40;1.50;;;;;;;;;;5133324;27;20430;-62
2022/09/04 01:53:28;;;;;;;5.70;2.10;;;;;;;;;;5131963;27;20430;-62
2022/09/04 01:56:01;;;;;;;1.53;1.53;;;;;;;;;;5132778;27;20431;-66
2022/09/04 01:58:27;;;;;;;2.67;1.87;;;;;;;;;;5112006;27;20890;-63
2022/09/04 02:01:00;;;;;;;2.20;1.27;;;;;;;;;;5132228;27;20486;-62
2022/09/04 02:03:30;;;;;;;1.73;1.50;;;;;;;;;;5132767;27;20587;-63
2022/09/04 02:05:59;;;;;;;1.70;1.70;;;;;;;;;;5133121;27;20442;-62
2022/09/04 02:08:38;;;;;;;2.47;1.60;;;;;;;;;;5131596;27;20451;-66
2022/09/04 02:11:09;;;;;;;2.53;2.03;;;;;;;;;;5132189;27;20818;-63
2022/09/04 02:13:43;;;;;;;1.57;1.57;;;;;;;;;;5131648;27;20422;-63
2022/09/04 02:16:32;;;;;;;1.40;1.40;;;;;;;;;;5133220;27;20971;-69
2022/09/04 02:18:59;;;;;;;1.47;1.47;;;;;;;;;;5132158;27;20422;-66
2022/09/04 02:21:44;;;;;;;1.80;1.80;;;;;;;;;;5133303;27;20477;-62
2022/09/04 02:24:13;;;;;;;2.10;1.90;;;;;;;;;;5131563;27;20797;-64
2022/09/04 02:26:46;;;;;;;1.70;1.70;;;;;;;;;;5131749;27;20438;-63
2022/09/04 02:29:22;;;;;;;1.60;1.60;;;;;;;;;;5132868;27;20419;-62
2022/09/04 02:31:55;;;;;;;1.73;1.63;;;;;;;;;;5131436;27;20441;-63
2022/09/04 02:34:24;;;;;;;1.47;1.47;;;;;;;;;;5132481;27;20426;-67
2022/09/04 02:36:57;;;;;;;1.47;1.47;;;;;;;;;;5131891;27;20418;-63
2022/09/04 02:39:39;;;;;;;1.40;1.40;;;;;;;;;;5131851;27;20439;-67
2022/09/04 02:42:31;;;;;;;5.30;1.83;;;;;;;;;;5113182;27;20853;-62
2022/09/04 02:44:57;;;;;;;1.47;1.47;;;;;;;;;;5118632;27;20789;-66
2022/09/04 02:47:27;;;;;;;1.50;1.40;;;;;;;;;;5132217;27;20419;-66
2022/09/04 02:49:58;;;;;;;1.60;1.60;;;;;;;;;;5132466;27;20419;-63
2022/09/04 02:52:32;;;;;;;1.90;1.80;;;;;;;;;;5131089;27;20435;-65
2022/09/04 02:55:17;;;;;;;3.60;1.73;;;;;;;;;;5131340;27;20423;-62
2022/09/04 02:57:43;;;;;;;2.10;2.00;;;;;;;;;;5131398;27;21007;-62
2022/09/04 03:00:15;;;;;;;1.87;1.70;;;;;;;;;;5131644;27;20493;-67
2022/09/04 03:02:44;;;;;;;4.33;1.40;;;;;;;;;;5130210;27;20469;-62
2022/09/04 03:05:29;;;;;;;2.50;1.70;;;;;;;;;;5131490;27;20469;-63
2022/09/04 03:08:06;;;;;;;1.93;1.83;;;;;;;;;;5131194;27;20427;-62
2022/09/04 03:10:45;;;;;;;1.70;1.70;;;;;;;;;;5131079;27;20562;-63
2022/09/04 03:13:21;;;;;;;2.00;1.60;;;;;;;;;;5131579;27;20423;-63
2022/09/04 03:15:58;;;;;;;2.67;1.77;;;;;;;;;;5131185;27;20419;-65
2022/09/04 03:18:33;;;;;;;1.30;1.30;;;;;;;;;;5131551;27;20422;-67
2022/09/04 03:21:00;;;;;;;1.70;1.60;;;;;;;;;;5130255;27;21128;-62
2022/09/04 03:23:29;;;;;;;2.50;1.70;;;;;;;;;;5130745;27;20422;-63
2022/09/04 03:25:55;;;;;;;2.23;1.80;;;;;;;;;;5131475;27;20450;-63
2022/09/04 03:28:24;;;;;;;1.80;1.80;;;;;;;;;;5130458;27;20796;-67
2022/09/04 03:30:51;;;;;;;2.10;1.80;;;;;;;;;;5131299;27;20422;-63
2022/09/04 03:33:43;;;;;;;2.10;2.10;;;;;;;;;;5130472;27;20521;-63
2022/09/04 03:36:14;;;;;;;1.50;1.50;;;;;;;;;;5112270;27;20779;-63
2022/09/04 03:39:03;;;;;;;3.07;1.60;;;;;;;;;;5130545;27;20874;-62
2022/09/04 03:41:47;;;;;;;2.20;2.20;;;;;;;;;;5114032;27;20482;-69
2022/09/04 03:44:21;;;;;;;3.03;2.40;;;;;;;;;;5130862;27;20465;-62
2022/09/04 03:46:58;;;;;;;3.93;3.57;;;;;;;;;;5128704;27;20437;-63
2022/09/04 03:49:30;;;;;;;2.30;2.20;;;;;;;;;;5130115;27;20458;-68
2022/09/04 03:52:05;;;;;;;2.83;2.73;;;;;;;;;;5130843;27;20445;-65
2022/09/04 03:54:41;;;;;;;9.20;3.10;;;;;;;;;;5129902;27;20497;-62
2022/09/04 03:57:20;;;;;;;2.63;2.63;;;;;;;;;;5130003;27;20900;-63
2022/09/04 03:59:55;;;;;;;2.93;2.03;;;;;;;;;;5131337;27;20437;-62
2022/09/04 04:02:36;;;;;;;4.97;2.37;;;;;;;;;;5129471;27;20441;-62
2022/09/04 04:05:22;;;;;;;2.60;2.40;;;;;;;;;;5129740;27;20425;-63
2022/09/04 04:07:51;;;;;;;3.63;2.47;;;;;;;;;;5129235;27;20449;-63
2022/09/04 04:10:32;;;;;;;4.87;2.03;;;;;;;;;;5130088;27;20429;-62
2022/09/04 04:13:03;;;;;;;1.97;1.97;;;;;;;;;;5130333;27;20474;-62
2022/09/04 04:15:45;;;;;;;2.20;2.03;;;;;;;;;;5111274;27;20430;-63
2022/09/04 04:18:30;;;;;;;3.70;3.50;;;;;;;;;;5130645;27;20569;-63
2022/09/04 04:21:04;;;;;;;4.60;2.90;;;;;;;;;;5112275;27;20509;-65
2022/09/04 04:23:49;;;;;;;2.50;2.40;;;;;;;;;;5130790;27;20794;-67
2022/09/04 04:26:15;;;;;;;2.77;2.67;;;;;;;;;;5130664;27;20422;-65
2022/09/04 04:29:00;;;;;;;3.13;2.10;;;;;;;;;;5128790;27;20415;-63
2022/09/04 04:31:43;;;;;;;1.97;1.97;;;;;;;;;;5130493;27;20410;-62
2022/09/04 04:34:28;;;;;;;2.00;1.97;;;;;;;;;;5130427;28;20422;-62
2022/09/04 04:36:55;;;;;;;1.63;1.60;;;;;;;;;;5129906;28;20441;-68
2022/09/04 04:39:24;;;;;;;2.33;2.23;;;;;;;;;;5129259;28;20434;-62
2022/09/04 04:42:11;;;;;;;1.97;1.83;;;;;;;;;;5129487;28;21003;-63
2022/09/04 04:47:35;;;;;;;2.27;2.00;;;;;;;;;;5125234;28;20457;-62
2022/09/04 04:50:15;;;;;;;1.83;1.73;;;;;;;;;;5129393;28;20428;-63
2022/09/04 04:52:51;;;;;;;2.70;2.60;;;;;;;;;;5129248;28;20479;-63
2022/09/04 04:55:22;;;;;;;2.00;2.00;;;;;;;;;;5128870;28;20425;-62
2022/09/04 04:57:56;;;;;;;2.33;1.97;;;;;;;;;;5128357;28;20507;-61
2022/09/04 05:00:43;;;;;;;2.57;1.60;;;;;;;;;;5128271;28;20505;-61
2022/09/04 05:03:14;;;;;;;3.33;1.33;;;;;;;;;;5128647;28;20910;-64
2022/09/04 05:05:48;;;;;;;1.43;1.43;;;;;;;;;;5128871;28;20423;-61
2022/09/04 05:08:33;;;;;;;3.60;2.00;;;;;;;;;;5128855;28;20506;-62
2022/09/04 05:11:06;;;;;;;5.40;1.90;;;;;;;;;;5128813;28;20446;-62
2022/09/04 05:13:39;;;;;;;3.60;1.70;;;;;;;;;;5128807;28;20419;-63
2022/09/04 05:16:13;;;;;;;2.53;2.43;;;;;;;;;;5127438;28;20439;-64
2022/09/04 05:18:58;;;;;;;3.07;2.13;;;;;;;;;;5128370;28;20562;-62
2022/09/04 05:21:24;;;;;;;2.40;1.70;;;;;;;;;;5128334;28;20485;-62
2022/09/04 05:24:05;;;;;;;2.87;1.87;;;;;;;;;;5109107;28;20502;-62
2022/09/04 05:27:07;;;;;;;1.40;1.40;;;;;;;;;;5128624;27;20426;-63
2022/09/04 05:29:50;;;;;;;3.90;2.30;;;;;;;;;;5027934;28;20450;-62
2022/09/04 05:32:16;;;;;;;1.67;1.57;;;;;;;;;;5124245;27;20442;-61
2022/09/04 05:35:11;;;;;;;1.60;1.60;;;;;;;;;;5133359;27;20433;-62
2022/09/04 05:37:40;;;;;;;1.67;1.67;;;;;;;;;;5107646;27;20201;-62
2022/09/04 05:40:12;;;;;;;1.40;1.40;;;;;;;;;;5132193;27;20445;-61
2022/09/04 05:42:44;;;;;;;1.80;1.80;;;;;;;;;;5131852;27;20466;-61
2022/09/04 05:45:28;;;;;;;4.83;1.70;;;;;;;;;;5113218;27;20453;-62
2022/09/04 05:48:01;;;;;;;1.20;1.20;;;;;;;;;;5131285;27;20443;-62
2022/09/04 05:50:45;;;;;;;2.10;1.40;;;;;;;;;;5132094;27;20567;-62
2022/09/04 05:53:17;;;;;;;7.10;1.60;;;;;;;;;;5129512;27;20430;-66
2022/09/04 05:55:59;;;;;;;7.00;1.40;;;;;;;;;;5131528;27;20443;-62
2022/09/04 05:58:25;;;;;;;1.90;1.83;;;;;;;;;;5130978;27;20520;-62
2022/09/04 06:01:12;;;;;;;2.20;2.00;;;;;;;;;;5130331;27;20510;-62
2022/09/04 06:03:38;;;;;;;1.93;1.93;;;;;;;;;;5112794;27;20418;-61
2022/09/04 06:06:10;;;;;;;6.53;2.07;;;;;;;;;;5131223;27;20430;-62
2022/09/04 06:08:39;;;;;;;2.37;2.27;;;;;;;;;;5130354;27;20234;-61
2022/09/04 06:11:24;;;;;;;2.10;2.00;;;;;;;;;;5132469;27;20427;-61
2022/09/04 06:13:58;;;;;;;2.50;2.40;;;;;;;;;;5132352;27;20838;-61
2022/09/04 06:16:46;;;;;;;2.87;2.80;;;;;;;;;;5131705;27;20415;-62
2022/09/04 06:19:11;;;;;;;4.00;2.83;;;;;;;;;;5130282;27;20520;-61
2022/09/04 06:21:43;;;;;;;1.90;1.80;;;;;;;;;;5132167;27;20973;-61
2022/09/04 06:24:21;;;;;;;2.70;2.50;;;;;;;;;;5111007;27;20193;-61
2022/09/04 06:26:59;;;;;;;4.73;2.70;;;;;;;;;;5112415;27;20446;-61
2022/09/04 06:29:32;;;;;;;2.63;2.40;;;;;;;;;;5129598;27;20430;-61
2022/09/04 06:31:58;;;;;;;3.63;2.23;;;;;;;;;;5128498;27;20442;-61
2022/09/04 06:34:24;;;;;;;2.87;2.03;;;;;;;;;;5131328;27;20422;-61
2022/09/04 06:37:07;;;;;;;3.57;2.27;;;;;;;;;;5129439;27;20788;-61
2022/09/04 06:39:36;;;;;;;1.73;1.73;;;;;;;;;;5128860;27;20434;-62
2022/09/04 06:42:15;;;;;;;2.40;2.30;;;;;;;;;;5129190;27;20531;-62
2022/09/04 06:44:48;;;;;;;3.00;2.80;;;;;;;;;;5112032;27;20804;-62
2022/09/04 06:47:14;;;;;;;6.47;2.03;;;;;;;;;;5128221;27;20439;-61
2022/09/04 06:49:46;;;;;;;4.43;2.40;;;;;;;;;;5130925;27;20507;-61
2022/09/04 06:52:23;;;;;;;6.63;3.67;;;;;;;;;;5130739;27;20189;-61
2022/09/04 06:54:55;;;;;;;4.07;2.27;;;;;;;;;;5127404;27;20435;-61
2022/09/04 06:57:40;;;;;;;4.00;2.07;;;;;;;;;;5130701;27;21232;-61
2022/09/04 07:00:08;;;;;;;3.23;1.97;;;;;;;;;;5131387;27;20471;-61
2022/09/04 07:02:55;;;;;;;8.23;3.13;;;;;;;;;;5129636;27;20445;-61
2022/09/04 07:05:23;;;;;;;3.33;1.80;;;;;;;;;;5131649;27;20501;-61
2022/09/04 07:07:51;;;;;;;1.40;1.40;;;;;;;;;;5130223;27;20437;-61
2022/09/04 07:10:40;;;;;;;5.00;1.70;;;;;;;;;;5131849;27;20465;-61
2022/09/04 07:13:16;;;;;;;1.63;1.53;;;;;;;;;;5111211;27;20869;-61
2022/09/04 07:15:45;;;;;;;1.40;1.40;;;;;;;;;;5131148;27;20509;-61
2022/09/04 07:18:33;;;;;;;3.77;2.20;;;;;;;;;;5130531;27;20431;-62
2022/09/04 07:21:18;;;;;;;1.60;1.60;;;;;;;;;;5129069;27;21206;-61
2022/09/04 07:23:44;;;;;;;2.53;1.67;;;;;;;;;;5128693;27;20414;-61
2022/09/04 07:26:10;;;;;;;1.43;1.43;;;;;;;;;;5130588;27;20435;-62
2022/09/04 07:28:36;;;;;;;10.67;1.87;;;;;;;;;;5131170;27;20327;-62
2022/09/04 07:31:10;;;;;;;4.53;1.57;;;;;;;;;;5130373;27;20433;-63
2022/09/04 07:33:41;;;;;;;2.10;1.60;;;;;;;;;;5131355;27;20941;-61
2022/09/04 07:36:12;;;;;;;2.13;2.00;;;;;;;;;;5129061;27;20525;-61
2022/09/04 07:39:02;;;;;;;2.13;1.80;;;;;;;;;;5130325;27;20442;-62
2022/09/04 07:41:31;;;;;;;2.03;2.03;;;;;;;;;;5130589;27;20583;-61
2022/09/04 07:44:09;;;;;;;2.70;1.80;;;;;;;;;;5129040;27;20410;-66
2022/09/04 07:46:43;;;;;;;2.00;2.00;;;;;;;;;;5122253;27;20668;-68
2022/09/04 07:49:31;;;;;;;2.10;2.00;;;;;;;;;;5130211;27;20422;-67
2022/09/04 07:52:06;;;;;;;2.13;2.03;;;;;;;;;;5128744;27;20430;-66
2022/09/04 07:54:44;;;;;;;1.80;1.80;;;;;;;;;;5129883;27;20435;-65
2022/09/04 07:57:20;;;;;;;2.30;1.90;;;;;;;;;;5127887;27;20898;-66
2022/09/04 07:59:58;;;;;;;1.83;1.73;;;;;;;;;;5129539;27;20434;-66
2022/09/04 08:02:42;;;;;;;2.60;1.97;;;;;;;;;;5128838;27;20832;-66
2022/09/04 08:05:27;;;;;;;3.87;1.83;;;;;;;;;;5130269;27;20433;-67
2022/09/04 08:08:11;;;;;;;3.33;1.93;;;;;;;;;;5129341;27;20431;-67
2022/09/04 08:10:50;;;;;;;2.20;2.10;;;;;;;;;;5111052;27;20418;-67
2022/09/04 08:13:21;;;;;;;2.10;2.00;;;;;;;;;;5130188;27;20937;-66
2022/09/04 08:16:04;;;;;;;3.23;1.90;;;;;;;;;;5111283;27;20841;-67
2022/09/04 08:18:31;;;;;;;1.67;1.67;;;;;;;;;;5129257;27;20427;-65
2022/09/04 08:21:16;;;;;;;2.10;2.10;;;;;;;;;;5128859;27;20474;-65
2022/09/04 08:24:02;;;;;;;1.77;1.77;;;;;;;;;;5129433;27;20727;-66
2022/09/04 08:26:33;;;;;;;2.90;1.60;;;;;;;;;;5076514;27;20434;-66
2022/09/04 08:29:14;;;;;;;1.60;1.50;;;;;;;;;;5127999;27;20433;-69
2022/09/04 08:32:07;;;;;;;1.30;1.30;;;;;;;;;;5128961;27;20445;-67
2022/09/04 08:34:42;;;;;;;1.60;1.50;;;;;;;;;;5130297;27;20415;-66
2022/09/04 08:37:23;;;;;;;2.73;1.67;;;;;;;;;;5128889;28;20419;-67
2022/09/04 08:40:08;;;;;;;3.23;1.57;;;;;;;;;;5111443;28;20495;-66
2022/09/04 08:42:49;;;;;;;1.50;1.50;;;;;;;;;;5129224;28;20473;-66
2022/09/04 08:45:32;;;;;;;2.80;2.17;;;;;;;;;;5128708;28;21207;-66
2022/09/04 08:48:15;;;;;;;3.13;2.90;;;;;;;;;;5129293;28;20522;-68
2022/09/04 08:51:00;;;;;;;1.50;1.50;;;;;;;;;;5129707;28;20418;-66
2022/09/04 08:53:41;;;;;;;3.53;1.73;;;;;;;;;;5129624;28;20433;-66
2022/09/04 08:56:08;;;;;;;5.07;1.13;;;;;;;;;;5129400;27;20433;-68
2022/09/04 08:58:53;;;;;;;1.47;1.47;;;;;;;;;;5127131;27;20514;-68
2022/09/04 09:01:38;;;;;;;1.63;1.63;;;;;;;;;;5130820;27;20569;-67
2022/09/04 09:04:14;;;;;;;1.60;1.60;;;;;;;;;;5133494;27;20785;-69
2022/09/04 09:06:58;;;;;;;1.80;1.80;;;;;;;;;;5133354;27;20430;-70
2022/09/04 09:09:27;;;;;;;1.63;1.63;;;;;;;;;;5133159;27;20425;-67
2022/09/04 09:12:17;;;;;;;1.60;1.60;;;;;;;;;;5132452;27;20422;-66
2022/09/04 09:15:02;;;;;;;1.73;1.73;;;;;;;;;;5133838;27;20434;-66
2022/09/04 09:17:37;;;;;;;1.90;1.90;;;;;;;;;;5132450;27;20449;-67
2022/09/04 09:20:06;;;;;;;7.27;1.40;;;;;;;;;;5133457;27;20434;-66
2022/09/04 09:22:50;;;;;;;1.73;1.57;;;;;;;;;;5132945;27;20478;-68
2022/09/04 09:25:23;;;;;;;1.60;1.60;;;;;;;;;;5132181;27;20697;-70
2022/09/04 09:28:08;;;;;;;1.80;1.80;;;;;;;;;;5132650;27;20811;-66
2022/09/04 09:30:52;;;;;;;1.43;1.43;;;;;;;;;;5131734;27;20434;-67
2022/09/04 09:33:24;;;;;;;1.20;1.20;;;;;;;;;;5132763;27;20438;-67
2022/09/04 09:35:54;;;;;;;1.83;1.83;;;;;;;;;;5133036;27;20438;-66
2022/09/04 09:38:34;;;;;;;1.67;1.57;;;;;;;;;;5132123;27;20430;-67
2022/09/04 09:41:09;;;;;;;3.23;1.50;;;;;;;;;;5132480;27;20514;-69
2022/09/04 09:43:55;;;;;;;1.30;1.20;;;;;;;;;;5131241;27;20854;-67
2022/09/04 09:46:40;;;;;;;1.20;1.20;;;;;;;;;;5133059;27;20418;-70
2022/09/04 09:49:24;;;;;;;1.33;1.20;;;;;;;;;;5131310;27;20419;-68
2022/09/04 09:52:05;;;;;;;1.17;1.17;;;;;;;;;;5132526;27;20434;-68
2022/09/04 09:54:41;;;;;;;1.40;1.40;;;;;;;;;;5131232;27;20435;-66
2022/09/04 09:57:23;;;;;;;1.60;1.60;;;;;;;;;;5132580;27;21839;-66
2022/09/04 10:00:01;;;;;;;1.10;1.10;;;;;;;;;;5132280;27;20438;-68
2022/09/04 10:02:46;;;;;;;1.50;1.50;;;;;;;;;;5132772;27;20509;-67
2022/09/04 10:05:20;;;;;;;1.50;1.50;;;;;;;;;;5133154;27;20415;-66
2022/09/04 10:08:05;;;;;;;1.73;1.73;;;;;;;;;;5131520;27;20476;-69
2022/09/04 10:10:37;;;;;;;1.27;1.23;;;;;;;;;;5131603;27;20430;-68
2022/09/04 10:13:03;;;;;;;1.20;1.20;;;;;;;;;;5130008;27;20930;-68
2022/09/04 10:15:38;;;;;;;1.50;1.50;;;;;;;;;;5131408;27;20491;-67
2022/09/04 10:18:24;;;;;;;1.70;1.70;;;;;;;;;;5131695;27;20192;-69
2022/09/04 10:20:54;;;;;;;1.60;1.50;;;;;;;;;;5132585;27;20462;-66
2022/09/04 10:23:22;;;;;;;1.43;1.43;;;;;;;;;;5131977;27;20434;-66
2022/09/04 10:25:55;;;;;;;1.33;1.33;;;;;;;;;;5132375;27;20479;-68
2022/09/04 10:28:39;;;;;;;2.87;1.07;;;;;;;;;;5131949;27;20437;-67
2022/09/04 10:31:24;;;;;;;3.13;2.37;;;;;;;;;;5131405;27;20441;-66
2022/09/04 10:34:03;;;;;;;1.30;1.30;;;;;;;;;;5131130;27;20426;-66
2022/09/04 10:36:49;;;;;;;1.73;1.73;;;;;;;;;;5131945;27;20435;-67
2022/09/04 10:42:21;;;;;;;1.20;1.20;;;;;;;;;;5132153;27;20464;-66
2022/09/04 10:44:57;;;;;;;3.70;2.40;;;;;;;;;;5131175;27;20771;-66
2022/09/04 10:47:23;;;;;;;1.50;1.40;;;;;;;;;;5131988;27;20758;-67
2022/09/04 10:50:11;;;;;;;1.40;1.10;;;;;;;;;;5131482;27;20514;-65
2022/09/04 10:52:59;;;;;;;3.37;1.40;;;;;;;;;;5131008;27;20434;-70
2022/09/04 10:55:27;;;;;;;1.20;1.20;;;;;;;;;;5131288;27;20617;-68
2022/09/04 10:58:20;;;;;;;1.37;1.00;;;;;;;;;;5131370;27;20497;-67
2022/09/04 11:01:04;;;;;;;2.93;1.20;;;;;;;;;;5086535;27;20497;-67
2022/09/04 11:03:43;;;;;;;0.83;0.83;;;;;;;;;;5131091;27;20433;-67
2022/09/04 11:06:28;;;;;;;1.00;1.00;;;;;;;;;;5129491;27;20906;-66
2022/09/04 11:09:10;;;;;;;8.20;1.40;;;;;;;;;;5130994;27;20434;-66
2022/09/04 11:11:37;;;;;;;1.73;0.80;;;;;;;;;;5131818;27;20941;-68
2022/09/04 11:14:12;;;;;;;1.47;1.47;;;;;;;;;;5130680;27;20438;-67
2022/09/04 11:16:41;;;;;;;0.87;0.87;;;;;;;;;;5130669;27;20431;-69
2022/09/04 11:19:23;;;;;;;2.20;1.50;;;;;;;;;;5131397;27;20430;-70
2022/09/04 11:21:49;;;;;;;1.07;1.07;;;;;;;;;;5112351;27;20522;-67
2022/09/04 11:24:19;;;;;;;1.77;1.17;;;;;;;;;;5106942;27;20530;-69
2022/09/04 11:26:48;;;;;;;1.10;1.10;;;;;;;;;;5129616;27;20719;-69
2022/09/04 11:29:23;;;;;;;1.33;1.30;;;;;;;;;;5130316;27;20538;-69
2022/09/04 11:31:55;;;;;;;1.00;1.00;;;;;;;;;;5130230;27;20434;-69
2022/09/04 11:34:32;;;;;;;0.87;0.73;;;;;;;;;;5131160;27;20901;-69
2022/09/04 11:37:17;;;;;;;5.23;1.73;;;;;;;;;;5129270;27;20435;-69
2022/09/04 11:40:02;;;;;;;0.80;0.80;;;;;;;;;;5130651;27;20435;-69
2022/09/04 11:42:29;;;;;;;1.50;1.40;;;;;;;;;;5129716;27;20527;-68
2022/09/04 11:44:59;;;;;;;0.77;0.77;;;;;;;;;;5111933;27;20422;-70
2022/09/04 11:47:44;;;;;;;0.97;0.90;;;;;;;;;;5129811;27;20434;-70
2022/09/04 11:50:16;;;;;;;0.80;0.80;;;;;;;;;;5130105;27;20953;-69
2022/09/04 11:52:45;;;;;;;1.83;1.20;;;;;;;;;;5130578;27;20782;-69
2022/09/04 11:55:15;;;;;;;1.13;1.03;;;;;;;;;;5130146;27;20517;-69
2022/09/04 11:57:53;;;;;;;1.07;0.90;;;;;;;;;;5127671;27;21076;-69
2022/09/04 12:00:19;;;;;;;0.80;0.80;;;;;;;;;;5129191;27;20517;-66
2022/09/04 12:03:05;;;;;;;1.00;1.00;;;;;;;;;;5130592;27;20549;-68
2022/09/04 12:05:49;;;;;;;3.30;1.30;;;;;;;;;;5129831;27;20434;-65
2022/09/04 12:08:18;;;;;;;0.93;0.93;;;;;;;;;;5129333;27;20841;-66
2022/09/04 12:11:03;;;;;;;3.00;1.10;;;;;;;;;;5130255;27;20414;-69
2022/09/04 12:13:56;;;;;;;0.90;0.90;;;;;;;;;;5130843;27;20493;-69
2022/09/04 12:16:45;;;;;;;3.83;0.90;;;;;;;;;;5087623;27;20501;-68
2022/09/04 12:19:12;;;;;;;1.80;1.50;;;;;;;;;;5082161;27;20419;-64
2022/09/04 12:22:06;;;;;;;1.43;1.33;;;;;;;;;;5129050;27;20525;-68
2022/09/04 12:24:52;;;;;;;1.50;0.90;;;;;;;;;;5130555;27;20434;-69
2022/09/04 12:27:38;;;;;;;2.23;1.40;;;;;;;;;;5074312;27;20980;-68
2022/09/04 12:30:06;;;;;;;1.37;0.80;;;;;;;;;;5068832;27;20993;-67
2022/09/04 12:32:43;;;;;;;0.87;0.63;;;;;;;;;;5130072;27;20907;-65
2022/09/04 12:35:28;;;;;;;1.53;1.43;;;;;;;;;;5127544;27;20557;-65
2022/09/04 12:37:58;;;;;;;1.33;1.23;;;;;;;;;;5126663;27;20479;-67
2022/09/04 12:40:42;;;;;;;1.30;1.20;;;;;;;;;;5126959;27;20426;-69
2022/09/04 12:43:20;;;;;;;6.23;1.07;;;;;;;;;;5128311;28;20492;-69
2022/09/04 12:45:49;;;;;;;1.30;1.30;;;;;;;;;;5126109;28;20427;-68
2022/09/04 12:48:31;;;;;;;0.80;0.80;;;;;;;;;;5128676;28;20434;-69
2022/09/04 12:51:00;;;;;;;3.40;1.00;;;;;;;;;;5109851;28;20435;-68
2022/09/04 12:53:36;;;;;;;2.10;1.03;;;;;;;;;;5129457;28;20435;-67
2022/09/04 12:56:11;;;;;;;1.67;0.87;;;;;;;;;;5129411;28;20430;-68
2022/09/04 12:58:41;;;;;;;1.13;1.03;;;;;;;;;;5127403;28;20470;-69
2022/09/04 13:01:09;;;;;;;0.93;0.93;;;;;;;;;;5127388;28;20529;-69
2022/09/04 13:03:36;;;;;;;0.70;0.70;;;;;;;;;;5110977;28;20481;-69
2022/09/04 13:06:20;;;;;;;0.80;0.80;;;;;;;;;;5110926;28;20419;-67
2022/09/04 13:08:52;;;;;;;5.10;1.00;;;;;;;;;;5128665;28;20473;-73
2022/09/04 13:11:33;;;;;;;1.88;1.00;;;;;;;;;;5127323;28;20405;-69
2022/09/04 13:14:18;;;;;;;1.63;0.83;;;;;;;;;;5128319;28;20192;-69
2022/09/04 13:16:55;;;;;;;1.07;0.90;;;;;;;;;;5128628;28;20427;-66
2022/09/04 13:19:41;;;;;;;0.90;0.90;;;;;;;;;;5129589;28;20446;-66
2022/09/04 13:22:16;;;;;;;5.40;0.90;;;;;;;;;;5128165;28;20507;-68
2022/09/04 13:25:01;;;;;;;0.73;0.73;;;;;;;;;;5127713;28;20430;-69
2022/09/04 13:27:42;;;;;;;5.70;1.27;;;;;;;;;;5110154;28;21448;-70
2022/09/04 13:30:08;;;;;;;0.83;0.80;;;;;;;;;;5125533;28;20423;-66
2022/09/04 13:32:53;;;;;;;0.80;0.80;;;;;;;;;;5127205;28;20419;-69
2022/09/04 13:35:31;;;;;;;0.80;0.80;;;;;;;;;;5128882;28;20423;-68
2022/09/04 13:38:14;;;;;;;0.90;0.90;;;;;;;;;;5128357;28;20454;-68
2022/09/04 13:41:00;;;;;;;1.17;1.07;;;;;;;;;;5128494;28;20551;-69
2022/09/04 13:43:40;;;;;;;0.77;0.77;;;;;;;;;;5129512;27;20442;-67
2022/09/04 13:46:10;;;;;;;0.93;0.93;;;;;;;;;;5129977;28;20506;-68
2022/09/04 13:48:40;;;;;;;1.37;1.13;;;;;;;;;;5132699;27;20934;-68
2022/09/04 13:51:10;;;;;;;2.33;0.90;;;;;;;;;;5133046;27;20422;-66
2022/09/04 13:53:41;;;;;;;2.50;0.80;;;;;;;;;;5133482;27;20488;-68
2022/09/04 13:56:10;;;;;;;1.00;1.00;;;;;;;;;;5133514;27;20437;-68
2022/09/04 13:58:38;;;;;;;0.60;0.60;;;;;;;;;;5133133;27;20475;-69
2022/09/04 14:01:08;;;;;;;0.67;0.67;;;;;;;;;;5132969;27;20462;-68
2022/09/04 14:03:54;;;;;;;0.70;0.70;;;;;;;;;;5133227;27;20478;-68
2022/09/04 14:06:21;;;;;;;1.10;1.10;;;;;;;;;;5132570;27;20410;-66
2022/09/04 14:08:49;;;;;;;3.07;1.40;;;;;;;;;;5133120;27;20435;-69
2022/09/04 14:11:36;;;;;;;1.30;1.20;;;;;;;;;;5133463;27;20407;-68
2022/09/04 14:14:20;;;;;;;1.33;1.00;;;;;;;;;;5133499;27;20410;-68
2022/09/04 14:16:48;;;;;;;2.30;1.00;;;;;;;;;;5132370;27;20419;-67
2022/09/04 14:19:20;;;;;;;1.30;1.17;;;;;;;;;;5114728;27;20521;-67
2022/09/04 14:22:05;;;;;;;9.63;1.00;;;;;;;;;;5132610;27;20993;-69
2022/09/04 14:24:40;;;;;;;0.90;0.90;;;;;;;;;;5133034;27;20415;-69
2022/09/04 14:27:25;;;;;;;1.00;1.00;;;;;;;;;;5132686;27;20418;-68
2022/09/04 14:29:57;;;;;;;0.80;0.80;;;;;;;;;;5133097;27;20415;-70
2022/09/04 14:32:27;;;;;;;0.90;0.90;;;;;;;;;;5113239;27;20427;-70
2022/09/04 14:34:54;;;;;;;0.90;0.90;;;;;;;;;;5132810;27;20480;-69
2022/09/04 14:37:34;;;;;;;0.97;0.97;;;;;;;;;;5113790;27;20449;-69
2022/09/04 14:40:14;;;;;;;0.70;0.70;;;;;;;;;;5132578;27;20445;-69
2022/09/04 14:42:45;;;;;;;0.80;0.80;;;;;;;;;;5132335;27;20484;-68
2022/09/04 14:45:38;;;;;;;0.80;0.80;;;;;;;;;;5131673;27;20933;-69
2022/09/04 14:48:10;;;;;;;1.00;0.87;;;;;;;;;;5093324;27;20430;-69
2022/09/04 14:50:47;;;;;;;0.93;0.93;;;;;;;;;;5132737;27;20842;-69
2022/09/04 14:53:20;;;;;;;3.20;0.87;;;;;;;;;;5113827;27;20795;-69
2022/09/04 14:56:04;;;;;;;1.07;1.07;;;;;;;;;;5132295;27;20422;-69
2022/09/04 14:58:35;;;;;;;1.10;0.83;;;;;;;;;;5130566;27;20469;-69
2022/09/04 15:01:05;;;;;;;0.60;0.60;;;;;;;;;;5132160;27;20535;-67
2022/09/04 15:03:34;;;;;;;0.87;0.87;;;;;;;;;;5132378;27;20419;-66
2022/09/04 15:06:06;;;;;;;1.63;1.20;;;;;;;;;;5128430;27;20419;-67
2022/09/04 15:08:33;;;;;;;0.83;0.83;;;;;;;;;;5126939;27;20427;-66
2022/09/04 15:11:02;;;;;;;1.07;0.80;;;;;;;;;;5130626;27;20883;-68
2022/09/04 15:13:32;;;;;;;3.40;1.07;;;;;;;;;;5130815;27;20427;-67
2022/09/04 15:16:05;;;;;;;1.10;1.10;;;;;;;;;;5128777;27;20478;-67
2022/09/04 15:18:37;;;;;;;1.13;1.13;;;;;;;;;;5128885;27;20470;-68
2022/09/04 15:21:03;;;;;;;1.17;1.17;;;;;;;;;;5129559;27;20531;-67
2022/09/04 15:23:48;;;;;;;1.07;0.97;;;;;;;;;;5130899;27;20435;-67
2022/09/04 15:26:24;;;;;;;0.73;0.70;;;;;;;;;;5130427;27;20549;-69
2022/09/04 15:28:52;;;;;;;0.80;0.80;;;;;;;;;;5130712;27;20495;-66
2022/09/04 15:31:28;;;;;;;1.73;0.87;;;;;;;;;;5130994;27;20427;-66
2022/09/04 15:34:00;;;;;;;1.10;1.07;;;;;;;;;;5130414;27;20789;-66
2022/09/04 15:36:26;;;;;;;1.80;1.80;;;;;;;;;;5128533;27;20438;-66
2022/09/04 15:39:03;;;;;;;3.40;0.90;;;;;;;;;;5130779;27;20425;-68
2022/09/04 15:41:33;;;;;;;0.80;0.80;;;;;;;;;;5129690;27;21121;-66